Time;durP1;ratioP1;P1;durP2;ratioP2;P2;SDS_P1;SDS_P2;PMS_P1;PMS_P2;Temp;Humidity;BMP_temperature;BMP_pressure;BME280_temperature;BME280_humidity;BME280_pressure;Samples;Min_cycle;Max_cycle;Signal;HPM_P1;HPM_P2
2023/07/22 00:00:15;;;;;;;8.98;5.28;;;19.60;99.90;;;;;;6240251;23;20039;-86
2023/07/22 00:02:47;;;;;;;7.22;5.15;;;19.60;99.90;;;;;;6239921;23;20016;-87
2023/07/22 00:05:15;;;;;;;7.18;5.10;;;19.60;99.90;;;;;;6189961;23;20059;-85
2023/07/22 00:07:44;;;;;;;8.02;5.40;;;19.60;99.90;;;;;;6240741;23;20526;-85
2023/07/22 00:10:11;;;;;;;7.22;5.22;;;19.60;99.90;;;;;;6240710;23;20102;-87
2023/07/22 00:12:39;;;;;;;8.82;5.78;;;19.60;99.90;;;;;;6240078;23;20038;-87
2023/07/22 00:15:11;;;;;;;7.70;5.47;;;19.60;99.90;;;;;;6239671;23;20031;-87
2023/07/22 00:17:41;;;;;;;8.90;5.43;;;19.50;99.90;;;;;;6190586;23;20028;-87
2023/07/22 00:20:10;;;;;;;7.47;5.43;;;19.60;99.90;;;;;;6189754;23;20052;-86
2023/07/22 00:22:42;;;;;;;9.02;5.00;;;19.50;99.90;;;;;;6191009;23;20509;-86
2023/07/22 00:25:11;;;;;;;11.02;5.25;;;19.50;99.90;;;;;;6239945;23;20107;-87
2023/07/22 00:27:39;;;;;;;8.00;5.60;;;19.50;99.90;;;;;;6188556;23;20020;-87
2023/07/22 00:30:17;;;;;;;7.72;5.47;;;19.50;99.90;;;;;;6190635;23;20023;-86
2023/07/22 00:32:44;;;;;;;9.55;5.78;;;19.50;99.90;;;;;;6188304;23;20077;-85
2023/07/22 00:35:12;;;;;;;7.95;5.32;;;19.40;99.90;;;;;;6239815;23;20431;-86
2023/07/22 00:37:39;;;;;;;7.40;5.32;;;19.50;99.90;;;;;;6240317;23;20051;-88
2023/07/22 00:40:11;;;;;;;7.85;5.53;;;19.50;99.90;;;;;;6238436;23;20024;-87
2023/07/22 00:42:40;;;;;;;8.32;5.95;;;19.50;99.90;;;;;;6191125;23;20028;-88
2023/07/22 00:45:08;;;;;;;10.63;6.50;;;19.40;99.90;;;;;;6239532;23;20070;-86
2023/07/22 00:47:36;;;;;;;7.43;5.80;;;19.40;99.90;;;;;;6240198;23;20035;-88
2023/07/22 00:50:06;;;;;;;9.38;5.40;;;19.40;99.90;;;;;;6190251;23;20080;-87
2023/07/22 00:52:34;;;;;;;8.15;5.68;;;19.40;99.90;;;;;;6190878;23;20346;-88
2023/07/22 00:55:03;;;;;;;8.75;5.72;;;19.40;99.90;;;;;;6191059;23;20039;-88
2023/07/22 00:57:31;;;;;;;8.82;5.75;;;19.40;99.90;;;;;;6190574;23;20458;-88
2023/07/22 00:59:58;;;;;;;9.32;6.45;;;19.40;99.90;;;;;;6189722;23;20027;-87
2023/07/22 01:02:26;;;;;;;8.00;5.88;;;19.40;99.90;;;;;;6214127;23;20016;-88
2023/07/22 01:04:53;;;;;;;8.82;6.25;;;19.30;99.90;;;;;;6238754;23;20346;-85
2023/07/22 01:07:23;;;;;;;9.55;7.20;;;19.40;99.90;;;;;;6240300;23;20020;-88
2023/07/22 01:09:56;;;;;;;8.98;7.03;;;19.40;99.90;;;;;;6240453;22;20024;-86
2023/07/22 01:12:24;;;;;;;10.50;7.28;;;19.30;99.90;;;;;;6188353;23;20019;-87
2023/07/22 01:14:52;;;;;;;9.25;7.20;;;19.30;99.90;;;;;;6239885;23;20089;-88
2023/07/22 01:17:20;;;;;;;9.82;7.25;;;19.30;99.90;;;;;;6190415;23;20024;-88
2023/07/22 01:19:48;;;;;;;10.52;6.95;;;19.30;99.90;;;;;;6190629;23;20103;-88
2023/07/22 01:22:17;;;;;;;8.77;6.95;;;19.30;99.90;;;;;;6213842;23;20518;-88
2023/07/22 01:24:45;;;;;;;10.30;7.60;;;19.30;99.90;;;;;;6189829;23;20502;-88
2023/07/22 01:27:14;;;;;;;10.35;7.05;;;19.30;99.90;;;;;;6189258;23;20074;-87
2023/07/22 01:29:41;;;;;;;10.13;7.75;;;19.30;99.90;;;;;;6239217;23;20039;-87
2023/07/22 01:32:09;;;;;;;10.05;6.97;;;19.30;99.90;;;;;;6239823;23;20020;-89
2023/07/22 01:34:36;;;;;;;10.27;7.35;;;19.30;99.90;;;;;;6240078;23;20686;-86
2023/07/22 01:37:04;;;;;;;8.98;6.97;;;19.30;99.90;;;;;;6239563;23;20487;-85
2023/07/22 01:39:32;;;;;;;9.90;7.72;;;19.30;99.90;;;;;;6190082;23;20099;-87
2023/07/22 01:41:59;;;;;;;10.25;7.30;;;19.30;99.90;;;;;;6239607;23;20799;-87
2023/07/22 01:44:27;;;;;;;10.23;6.90;;;19.30;99.90;;;;;;6240941;23;20050;-89
2023/07/22 01:46:54;;;;;;;12.10;7.15;;;19.30;99.90;;;;;;6238678;23;20022;-89
2023/07/22 01:49:24;;;;;;;10.70;7.35;;;19.20;99.90;;;;;;6240890;23;20024;-87
2023/07/22 01:51:52;;;;;;;11.05;8.23;;;19.20;99.90;;;;;;6242358;23;20020;-88
2023/07/22 01:54:20;;;;;;;8.68;6.85;;;19.20;99.90;;;;;;6241760;23;20024;-87
2023/07/22 01:56:47;;;;;;;9.98;6.93;;;19.20;99.90;;;;;;6241560;23;20052;-88
2023/07/22 01:59:14;;;;;;;10.63;7.50;;;19.20;99.90;;;;;;6242333;23;20023;-88
2023/07/22 02:01:42;;;;;;;10.20;8.07;;;19.20;99.90;;;;;;6241290;23;20020;-89
2023/07/22 02:04:10;;;;;;;10.27;7.10;;;18.90;99.90;;;;;;6241559;23;20020;-88
2023/07/22 02:06:38;;;;;;;10.27;7.60;;;19.10;99.90;;;;;;6241135;23;20093;-88
2023/07/22 02:09:08;;;;;;;10.85;7.53;;;19.20;99.90;;;;;;6240946;23;20020;-89
2023/07/22 02:11:36;;;;;;;10.82;6.75;;;19.10;99.90;;;;;;6241695;23;20043;-89
2023/07/22 02:14:06;;;;;;;10.38;7.38;;;19.10;99.90;;;;;;6241990;23;20030;-89
2023/07/22 02:16:36;;;;;;;9.57;6.93;;;19.10;99.90;;;;;;6241393;23;20048;-89
2023/07/22 02:19:04;;;;;;;10.15;7.30;;;19.10;99.90;;;;;;6217396;23;20605;-89
2023/07/22 02:21:39;;;;;;;10.25;6.45;;;19.10;99.90;;;;;;6241293;23;20024;-89
2023/07/22 02:24:08;;;;;;;9.40;5.93;;;19.10;99.90;;;;;;6241835;23;20027;-89
2023/07/22 02:26:35;;;;;;;8.48;6.47;;;19.10;99.90;;;;;;6217271;23;20103;-89
2023/07/22 02:29:03;;;;;;;9.20;6.22;;;19.10;99.90;;;;;;6239644;23;20028;-88
2023/07/22 02:31:30;;;;;;;7.68;6.10;;;19.10;99.90;;;;;;6240386;23;20119;-87
2023/07/22 02:33:58;;;;;;;9.10;6.03;;;19.10;99.90;;;;;;6241691;23;20024;-88
2023/07/22 02:36:25;;;;;;;10.45;7.28;;;19.00;99.90;;;;;;6242523;23;20070;-87
2023/07/22 02:38:53;;;;;;;9.27;6.40;;;19.20;99.90;;;;;;6241798;23;20469;-88
2023/07/22 02:41:21;;;;;;;9.98;6.53;;;19.00;99.90;;;;;;6238302;23;20077;-89
2023/07/22 02:43:48;;;;;;;9.30;6.10;;;19.00;99.90;;;;;;6241005;23;20020;-89
2023/07/22 02:46:16;;;;;;;12.60;7.22;;;19.00;99.90;;;;;;6240849;23;20665;-87
2023/07/22 02:48:43;;;;;;;9.00;6.57;;;19.00;99.90;;;;;;6241231;23;20024;-89
2023/07/22 02:51:11;;;;;;;9.93;7.05;;;19.00;99.90;;;;;;6239154;23;20016;-89
2023/07/22 02:53:38;;;;;;;11.15;7.13;;;19.00;99.90;;;;;;6242108;23;20477;-89
2023/07/22 02:56:11;;;;;;;10.60;6.55;;;19.00;99.90;;;;;;6240116;23;20020;-89
2023/07/22 02:58:38;;;;;;;;;;;18.90;99.90;;;;;;6216550;23;20043;-88
2023/07/22 03:01:08;;;;;;;9.32;6.25;;;18.90;99.90;;;;;;6239646;22;19920;-89
2023/07/22 03:03:37;;;;;;;8.52;6.53;;;18.90;99.90;;;;;;6240706;23;20421;-88
2023/07/22 03:06:04;;;;;;;8.98;6.28;;;18.90;99.90;;;;;;6190266;23;20090;-88
2023/07/22 03:08:32;;;;;;;8.45;6.70;;;18.90;99.90;;;;;;6241215;23;20416;-88
2023/07/22 03:10:59;;;;;;;9.88;5.72;;;18.90;99.90;;;;;;6239673;23;20016;-88
2023/07/22 03:13:30;;;;;;;7.22;5.78;;;18.90;99.90;;;;;;6242327;23;20026;-88
2023/07/22 03:15:58;;;;;;;8.80;5.70;;;18.90;99.90;;;;;;6190562;23;20024;-88
2023/07/22 03:18:25;;;;;;;7.28;5.72;;;18.90;99.90;;;;;;6216696;23;20024;-88
2023/07/22 03:20:53;;;;;;;11.10;6.70;;;18.90;99.90;;;;;;6241050;23;20103;-88
2023/07/22 03:23:20;;;;;;;8.40;5.97;;;18.90;99.90;;;;;;6241470;23;20024;-88
2023/07/22 03:25:48;;;;;;;6.97;5.28;;;18.90;99.90;;;;;;6241423;23;20047;-88
2023/07/22 03:28:16;;;;;;;9.25;5.95;;;18.90;99.90;;;;;;6240837;22;20119;-88
2023/07/22 03:30:44;;;;;;;9.60;5.82;;;18.90;99.90;;;;;;6240993;23;20074;-88
2023/07/22 03:33:11;;;;;;;6.55;5.68;;;18.90;99.90;;;;;;6240860;23;20034;-88
2023/07/22 03:35:38;;;;;;;9.63;6.03;;;18.90;99.90;;;;;;6241473;23;20024;-88
2023/07/22 03:38:08;;;;;;;8.00;6.60;;;19.00;99.90;;;;;;6239778;23;20055;-87
2023/07/22 03:40:35;;;;;;;9.38;6.15;;;19.00;99.90;;;;;;6240481;23;20108;-88
2023/07/22 03:43:02;;;;;;;9.05;6.00;;;19.00;99.90;;;;;;6240933;23;20020;-88
2023/07/22 03:45:30;;;;;;;7.05;5.72;;;19.00;99.90;;;;;;6240307;23;20107;-89
2023/07/22 03:47:59;;;;;;;8.75;5.85;;;19.00;99.90;;;;;;6240772;23;20024;-88
2023/07/22 03:50:27;;;;;;;9.60;6.72;;;19.10;99.90;;;;;;6241584;22;20032;-88
2023/07/22 03:52:54;;;;;;;11.05;6.38;;;19.10;99.90;;;;;;6241163;22;20365;-89
2023/07/22 03:55:22;;;;;;;9.82;6.75;;;19.10;99.90;;;;;;6241762;23;20090;-89
2023/07/22 03:57:49;;;;;;;9.48;6.03;;;19.10;99.90;;;;;;6241240;23;20028;-88
2023/07/22 04:00:17;;;;;;;7.38;5.97;;;19.10;99.90;;;;;;6240475;23;20111;-87
2023/07/22 04:02:45;;;;;;;8.93;6.65;;;19.20;99.90;;;;;;6240131;23;20123;-89
2023/07/22 04:05:12;;;;;;;10.05;6.43;;;19.20;99.90;;;;;;6241355;23;20024;-89
2023/07/22 04:07:39;;;;;;;7.68;6.30;;;19.20;99.90;;;;;;6240799;23;20019;-88
2023/07/22 04:10:07;;;;;;;8.88;6.50;;;19.20;99.90;;;;;;6240032;23;20643;-88
2023/07/22 04:12:34;;;;;;;9.20;6.78;;;19.20;99.90;;;;;;6240125;23;20047;-89
2023/07/22 04:15:03;;;;;;;8.68;6.00;;;19.30;99.90;;;;;;6240526;23;20099;-89
2023/07/22 04:17:31;;;;;;;10.25;6.63;;;19.30;99.90;;;;;;6239943;23;20028;-89
2023/07/22 04:19:58;;;;;;;7.10;5.90;;;19.30;99.90;;;;;;6239500;23;20020;-89
2023/07/22 04:22:29;;;;;;;8.73;6.43;;;19.30;99.90;;;;;;6240674;23;20047;-88
2023/07/22 04:24:59;;;;;;;8.98;6.68;;;19.40;99.90;;;;;;6189999;23;20016;-89
2023/07/22 04:27:38;;;;;;;14.68;6.88;;;19.10;99.90;;;;;;6239196;23;20027;-89
2023/07/22 04:30:24;;;;;;;9.23;7.40;;;19.40;99.90;;;;;;6216021;23;20525;-88
2023/07/22 04:43:51;;;;;;;;;;;;;;;;;;;;;
2023/07/22 05:26:17;;;;;;;10.45;5.55;;;20.30;99.90;;;;;;6241177;22;20063;-80
2023/07/22 05:32:24;;;;;;;7.63;5.65;;;20.60;99.90;;;;;;6229822;22;20023;-81
2023/07/22 05:38:44;;;;;;;6.80;4.95;;;21.00;99.90;;;;;;6292847;22;19987;-94
2023/07/22 05:41:12;;;;;;;8.18;6.18;;;21.00;99.90;;;;;;6251193;22;20023;-94
2023/07/22 05:43:42;;;;;;;7.53;6.18;;;21.10;99.90;;;;;;6253507;22;20023;-92
2023/07/22 05:46:21;;;;;;;8.88;5.43;;;21.10;99.90;;;;;;6252874;22;20076;-92
2023/07/22 05:49:12;;;;;;;8.47;4.97;;;21.20;99.90;;;;;;6257040;22;20023;-94
2023/07/22 05:51:40;;;;;;;8.52;5.53;;;21.30;99.90;;;;;;6251917;22;20042;-93
2023/07/22 05:54:30;;;;;;;6.90;5.28;;;21.50;99.90;;;;;;6249594;22;20019;-91
2023/07/22 05:57:01;;;;;;;8.05;4.95;;;21.40;99.90;;;;;;6246133;22;20019;-90
2023/07/22 05:59:29;;;;;;;5.95;4.90;;;21.50;99.90;;;;;;6249720;22;20023;-91
2023/07/22 06:01:57;;;;;;;7.35;5.00;;;21.60;99.90;;;;;;6245014;22;20027;-91
2023/07/22 06:04:28;;;;;;;7.93;4.55;;;21.70;99.90;;;;;;6247189;22;20019;-94
2023/07/22 06:07:03;;;;;;;6.50;4.20;;;21.70;99.90;;;;;;6245583;22;20072;-86
2023/07/22 06:09:31;;;;;;;5.50;3.72;;;21.90;99.90;;;;;;6247717;22;20088;-91
2023/07/22 06:12:13;;;;;;;6.68;4.20;;;22.00;99.90;;;;;;6249442;22;20041;-93
2023/07/22 06:14:43;;;;;;;5.95;3.60;;;22.00;99.90;;;;;;6247957;22;20106;-93
2023/07/22 06:17:20;;;;;;;6.35;3.45;;;21.90;99.90;;;;;;6247646;22;20098;-88
2023/07/22 06:23:18;;;;;;;4.53;2.63;;;22.20;99.90;;;;;;6219447;22;20027;-88
2023/07/22 06:26:10;;;;;;;4.55;3.08;;;22.30;99.90;;;;;;6186311;22;20027;-86
2023/07/22 06:28:48;;;;;;;5.97;3.22;;;22.30;99.90;;;;;;6248688;22;20023;-88
2023/07/22 06:32:29;;;;;;;5.43;2.28;;;22.30;99.70;;;;;;6208007;23;20020;-91
2023/07/22 06:35:28;;;;;;;7.25;2.50;;;22.60;99.40;;;;;;6032799;23;20037;-90
2023/07/22 06:37:56;;;;;;;3.60;2.35;;;22.40;99.40;;;;;;6057820;23;20023;-89
2023/07/22 06:40:27;;;;;;;3.13;2.28;;;22.40;99.00;;;;;;6014464;23;20195;-90
2023/07/22 06:42:59;;;;;;;4.72;2.75;;;22.50;98.00;;;;;;6015500;23;20034;-88
2023/07/22 06:45:39;;;;;;;2.75;2.10;;;22.50;97.40;;;;;;6038815;23;20451;-90
2023/07/22 06:48:09;;;;;;;2.97;2.35;;;22.70;97.00;;;;;;6038673;23;20023;-92
2023/07/22 06:50:37;;;;;;;5.28;2.15;;;22.80;96.90;;;;;;6039466;23;20027;-90
2023/07/22 06:53:14;;;;;;;2.90;1.85;;;22.80;95.90;;;;;;6014931;23;20062;-86
2023/07/22 06:55:56;;;;;;;3.90;2.20;;;23.00;96.30;;;;;;6036832;23;20023;-87
2023/07/22 06:58:23;;;;;;;3.05;2.20;;;23.10;94.80;;;;;;6036950;23;20122;-88
2023/07/22 07:00:55;;;;;;;4.68;2.55;;;22.90;94.80;;;;;;6034590;23;20054;-87
2023/07/22 07:03:25;;;;;;;4.85;2.25;;;23.10;94.60;;;;;;6063097;23;20457;-85
2023/07/22 07:06:02;;;;;;;3.05;2.30;;;23.20;94.80;;;;;;6091775;23;20502;-88
2023/07/22 07:08:37;;;;;;;3.30;2.53;;;23.10;93.70;;;;;;6096862;23;20028;-85
2023/07/22 07:11:09;;;;;;;3.45;1.85;;;23.30;94.30;;;;;;6157661;22;20089;-87
2023/07/22 07:13:46;;;;;;;4.07;2.28;;;23.40;93.80;;;;;;6245751;22;20019;-87
2023/07/22 07:17:33;;;;;;;3.10;2.15;;;23.50;94.20;;;;;;6159139;23;20032;-85
2023/07/22 07:20:52;;;;;;;5.50;2.80;;;23.90;93.60;;;;;;6129826;23;20445;-86
2023/07/22 07:23:38;;;;;;;4.72;2.13;;;23.00;92.70;;;;;;6131466;23;20451;-91
2023/07/22 07:26:08;;;;;;;3.88;2.28;;;24.20;92.70;;;;;;6128818;23;20448;-84
2023/07/22 07:28:36;;;;;;;5.53;2.28;;;23.90;91.70;;;;;;6129723;23;20024;-86
2023/07/22 07:31:04;;;;;;;2.45;1.77;;;24.10;92.00;;;;;;6128766;23;20072;-90
2023/07/22 07:33:50;;;;;;;3.45;2.30;;;24.10;91.40;;;;;;6165068;22;20050;-88
2023/07/22 07:36:18;;;;;;;4.95;2.20;;;24.10;90.80;;;;;;6221703;22;20026;-88
2023/07/22 07:38:47;;;;;;;2.58;1.98;;;24.00;90.40;;;;;;6224444;22;20058;-90
2023/07/22 07:41:35;;;;;;;3.72;2.05;;;24.10;91.10;;;;;;6268225;22;20024;-90
2023/07/22 07:44:06;;;;;;;4.53;2.08;;;23.90;90.00;;;;;;6230246;22;20497;-86
2023/07/22 07:46:37;;;;;;;3.25;1.77;;;24.10;90.10;;;;;;6268394;22;20043;-85
2023/07/22 07:49:25;;;;;;;2.67;1.63;;;24.20;90.00;;;;;;6265483;22;20804;-87
2023/07/22 07:52:16;;;;;;;6.53;2.63;;;24.40;90.30;;;;;;6270260;22;20103;-90
2023/07/22 07:55:26;;;;;;;3.63;2.08;;;24.40;89.40;;;;;;6201657;22;20105;-87
2023/07/22 08:11:36;;;;;;;2.60;2.03;;;24.10;87.00;;;;;;6261774;22;20073;-83
2023/07/22 08:14:05;;;;;;;2.95;1.83;;;24.70;87.80;;;;;;6269816;22;20049;-82
2023/07/22 08:16:33;;;;;;;3.83;1.67;;;24.60;86.00;;;;;;6271569;22;20020;-82
2023/07/22 08:19:00;;;;;;;2.70;1.80;;;24.60;84.80;;;;;;6245689;22;20012;-82
2023/07/22 08:21:28;;;;;;;3.60;1.95;;;24.70;85.60;;;;;;6272973;22;20019;-83
2023/07/22 08:23:56;;;;;;;2.00;1.48;;;24.80;83.50;;;;;;6273675;22;20079;-82
2023/07/22 08:26:23;;;;;;;2.72;1.67;;;24.60;83.30;;;;;;6248727;22;20054;-80
2023/07/22 08:28:51;;;;;;;3.47;1.50;;;24.70;83.70;;;;;;6247853;22;20019;-84
2023/07/22 08:31:19;;;;;;;2.35;1.75;;;24.80;82.30;;;;;;6273862;22;20390;-81
2023/07/22 08:33:46;;;;;;;2.63;1.58;;;24.80;81.40;;;;;;6275240;22;20019;-85
2023/07/22 08:36:19;;;;;;;2.60;1.35;;;24.90;82.00;;;;;;6272652;22;20042;-83
2023/07/22 08:38:57;;;;;;;2.38;1.10;;;25.00;80.40;;;;;;6247707;22;20027;-79
2023/07/22 08:41:29;;;;;;;3.92;1.85;;;25.00;77.70;;;;;;6274395;22;20353;-86
2023/07/22 08:44:01;;;;;;;2.50;1.63;;;24.90;78.40;;;;;;6245134;22;20476;-85
2023/07/22 08:46:32;;;;;;;3.28;2.25;;;25.10;80.60;;;;;;6271362;22;20028;-82
2023/07/22 08:49:00;;;;;;;3.78;1.48;;;25.20;81.00;;;;;;6270317;22;20440;-85
2023/07/22 08:51:32;;;;;;;1.65;1.20;;;25.20;78.50;;;;;;6274012;22;20066;-83
2023/07/22 08:54:01;;;;;;;2.90;1.55;;;25.20;78.10;;;;;;6250046;22;20030;-79
2023/07/22 08:56:49;;;;;;;4.43;1.95;;;25.30;79.00;;;;;;6197021;23;20031;-82
2023/07/22 08:59:45;;;;;;;2.38;1.52;;;25.30;77.10;;;;;;6182115;23;20044;-83
2023/07/22 09:02:14;;;;;;;2.20;1.60;;;25.10;76.70;;;;;;6131606;23;20017;-83
2023/07/22 09:04:45;;;;;;;4.32;2.80;;;25.30;78.10;;;;;;6157146;23;20025;-84
2023/07/22 09:07:14;;;;;;;3.22;1.77;;;25.40;77.90;;;;;;6133782;23;20032;-82
2023/07/22 09:09:42;;;;;;;3.42;1.65;;;25.60;78.80;;;;;;6156585;23;20029;-84
2023/07/22 09:12:14;;;;;;;3.90;1.92;;;25.60;77.80;;;;;;6130757;23;20035;-82
2023/07/22 09:14:43;;;;;;;2.38;2.00;;;25.40;76.40;;;;;;6131329;23;20017;-80
2023/07/22 09:17:10;;;;;;;2.33;1.63;;;25.50;77.20;;;;;;6132655;23;20031;-84
2023/07/22 09:19:37;;;;;;;2.47;1.50;;;25.50;76.70;;;;;;6134071;23;20024;-84
2023/07/22 09:22:05;;;;;;;2.50;1.60;;;25.60;76.60;;;;;;6180776;23;20048;-85
2023/07/22 09:24:32;;;;;;;2.97;1.65;;;25.60;75.90;;;;;;6158105;23;20025;-84
2023/07/22 09:27:00;;;;;;;3.38;1.90;;;25.70;77.30;;;;;;6160827;23;20481;-83
2023/07/22 09:29:40;;;;;;;3.45;1.75;;;25.60;77.70;;;;;;6162115;23;20032;-81
2023/07/22 09:32:10;;;;;;;2.40;2.03;;;25.40;77.10;;;;;;6188215;23;20025;-84
2023/07/22 09:34:37;;;;;;;2.88;1.73;;;25.70;78.00;;;;;;6157503;23;20079;-84
2023/07/22 09:37:05;;;;;;;2.67;1.52;;;25.50;75.50;;;;;;6217142;22;20490;-87
2023/07/22 09:39:52;;;;;;;1.80;1.60;;;25.50;75.20;;;;;;6215527;23;20020;-81
2023/07/22 09:42:26;;;;;;;3.05;1.30;;;25.60;76.80;;;;;;6241444;23;20016;-80
2023/07/22 09:44:55;;;;;;;3.58;1.48;;;25.60;76.20;;;;;;6186513;23;20079;-84
2023/07/22 09:47:23;;;;;;;2.90;1.48;;;25.50;77.00;;;;;;6185851;23;20740;-85
2023/07/22 09:49:50;;;;;;;3.45;1.50;;;25.60;77.10;;;;;;6182734;23;20021;-82
2023/07/22 09:52:17;;;;;;;3.05;1.48;;;25.70;77.60;;;;;;6160781;23;20028;-86
2023/07/22 09:54:56;;;;;;;1.83;1.20;;;25.70;74.40;;;;;;6159375;23;20036;-83
2023/07/22 09:57:24;;;;;;;3.85;1.58;;;25.60;73.90;;;;;;6210988;23;20028;-83
2023/07/22 09:59:52;;;;;;;3.10;1.23;;;25.50;74.50;;;;;;6187726;23;20029;-83
2023/07/22 10:02:22;;;;;;;3.63;1.30;;;25.50;75.50;;;;;;6185974;23;20021;-85
2023/07/22 10:04:52;;;;;;;2.47;1.30;;;25.60;75.20;;;;;;6186634;23;20059;-81
2023/07/22 10:07:20;;;;;;;1.50;1.35;;;25.70;75.30;;;;;;6206339;23;20697;-82
2023/07/22 10:09:55;;;;;;;2.42;1.50;;;25.70;74.10;;;;;;6186454;23;20117;-82
2023/07/22 10:12:24;;;;;;;2.95;1.40;;;25.70;75.20;;;;;;6208924;23;20071;-79
2023/07/22 10:14:53;;;;;;;2.10;1.25;;;25.90;76.70;;;;;;6141080;23;20699;-82
2023/07/22 10:17:21;;;;;;;1.95;1.58;;;26.00;75.90;;;;;;6184444;22;20081;-80
2023/07/22 10:19:51;;;;;;;2.80;1.35;;;26.00;75.10;;;;;;6271992;22;20680;-84
2023/07/22 10:22:21;;;;;;;2.08;1.17;;;26.00;74.30;;;;;;6251003;22;20023;-79
2023/07/22 10:24:50;;;;;;;1.50;0.90;;;26.00;74.10;;;;;;6276306;22;20019;-83
2023/07/22 10:27:18;;;;;;;2.88;0.90;;;25.90;73.30;;;;;;6272769;22;20042;-85
2023/07/22 10:29:46;;;;;;;2.55;1.27;;;26.00;74.00;;;;;;6252297;22;20820;-82
2023/07/22 10:32:14;;;;;;;2.55;1.10;;;26.00;74.50;;;;;;6225024;22;20106;-84
2023/07/22 10:34:41;;;;;;;4.30;1.15;;;25.90;74.50;;;;;;6276335;22;20066;-82
2023/07/22 10:37:13;;;;;;;3.08;1.60;;;25.90;73.70;;;;;;6278794;22;20015;-80
2023/07/22 10:39:42;;;;;;;2.15;1.02;;;25.90;73.70;;;;;;6276662;22;20015;-83
2023/07/22 10:42:23;;;;;;;2.38;1.30;;;25.90;74.00;;;;;;6224727;22;20861;-81
2023/07/22 10:45:00;;;;;;;1.67;1.20;;;25.90;73.30;;;;;;6217708;22;20107;-80
2023/07/22 10:47:35;;;;;;;3.45;1.27;;;25.90;73.00;;;;;;6274291;22;20019;-82
2023/07/22 10:50:09;;;;;;;2.80;1.20;;;25.90;72.80;;;;;;6276437;22;20020;-82
2023/07/22 10:52:43;;;;;;;1.80;0.98;;;25.90;72.90;;;;;;6225818;22;20042;-81
2023/07/22 10:55:21;;;;;;;3.42;1.15;;;25.90;72.30;;;;;;6227040;22;20073;-81
2023/07/22 10:57:52;;;;;;;2.78;0.80;;;25.90;71.80;;;;;;6270593;22;20046;-81
2023/07/22 11:00:21;;;;;;;2.35;0.85;;;26.00;71.10;;;;;;6224898;22;20019;-84
2023/07/22 11:03:09;;;;;;;2.70;1.02;;;25.90;71.10;;;;;;6250323;22;20719;-83
2023/07/22 11:05:52;;;;;;;2.05;1.13;;;25.90;71.00;;;;;;6250050;22;20094;-82
2023/07/22 11:08:41;;;;;;;2.33;0.90;;;26.00;71.00;;;;;;6249636;22;20019;-81
2023/07/22 11:11:11;;;;;;;1.90;0.77;;;25.90;71.20;;;;;;6241016;22;20423;-81
2023/07/22 11:13:40;;;;;;;1.50;0.82;;;25.70;70.60;;;;;;6248030;22;20016;-82
2023/07/22 11:16:12;;;;;;;1.83;0.82;;;25.90;71.30;;;;;;6276029;22;20073;-80
2023/07/22 11:18:40;;;;;;;4.35;1.10;;;25.90;69.90;;;;;;6249970;22;20071;-81
2023/07/22 11:21:12;;;;;;;1.77;1.30;;;26.00;71.40;;;;;;6249964;22;20015;-81
2023/07/22 11:23:40;;;;;;;1.60;0.95;;;25.90;69.30;;;;;;6268049;22;20325;-80
2023/07/22 11:26:10;;;;;;;3.80;0.80;;;25.90;70.30;;;;;;6249474;22;20390;-82
2023/07/22 11:28:42;;;;;;;2.92;0.82;;;25.70;69.30;;;;;;6248506;22;20443;-84
2023/07/22 11:31:10;;;;;;;1.85;1.10;;;25.80;70.60;;;;;;6249142;22;20047;-82
2023/07/22 11:33:40;;;;;;;2.33;0.80;;;25.90;71.00;;;;;;6275325;22;20016;-83
2023/07/22 11:36:08;;;;;;;3.60;1.02;;;26.00;69.10;;;;;;6249258;22;20394;-83
2023/07/22 11:38:35;;;;;;;2.55;0.88;;;26.00;68.80;;;;;;6274383;22;20469;-81
2023/07/22 11:41:04;;;;;;;2.25;0.90;;;25.90;68.30;;;;;;6276466;22;20027;-84
2023/07/22 11:43:32;;;;;;;2.70;0.80;;;25.90;70.20;;;;;;6249091;22;20443;-83
2023/07/22 11:46:00;;;;;;;2.30;0.80;;;26.00;70.50;;;;;;6249297;22;20089;-81
2023/07/22 11:48:27;;;;;;;1.50;0.65;;;26.10;69.90;;;;;;6248732;22;20030;-82
2023/07/22 11:50:59;;;;;;;1.60;0.52;;;26.00;67.90;;;;;;6274737;22;20057;-80
2023/07/22 11:53:29;;;;;;;1.95;0.77;;;25.90;67.70;;;;;;6249416;22;20032;-79
2023/07/22 11:55:58;;;;;;;2.88;1.20;;;26.00;68.20;;;;;;6275296;22;20174;-81
2023/07/22 11:58:28;;;;;;;3.65;1.00;;;26.10;69.50;;;;;;6251179;22;20023;-82
2023/07/22 12:01:08;;;;;;;6.97;2.25;;;26.00;68.50;;;;;;6247695;22;20023;-83
2023/07/22 12:03:35;;;;;;;5.55;1.67;;;26.10;70.60;;;;;;6236994;22;20020;-82
2023/07/22 12:06:06;;;;;;;1.92;0.60;;;26.10;68.50;;;;;;6248145;22;20020;-84
2023/07/22 12:08:35;;;;;;;1.48;0.50;;;26.10;67.90;;;;;;6268116;22;20046;-82
2023/07/22 12:11:03;;;;;;;2.83;0.63;;;26.00;67.70;;;;;;6274491;22;20034;-82
2023/07/22 12:13:36;;;;;;;1.33;0.52;;;26.20;69.20;;;;;;6249666;22;20023;-81
2023/07/22 12:16:05;;;;;;;3.60;0.80;;;26.40;68.20;;;;;;6255190;22;20023;-81
2023/07/22 12:18:46;;;;;;;1.00;0.40;;;26.40;64.10;;;;;;6279167;22;20431;-80
2023/07/22 12:21:16;;;;;;;1.10;0.40;;;26.20;62.40;;;;;;6230046;22;20026;-85
2023/07/22 12:23:43;;;;;;;1.83;0.50;;;26.20;64.00;;;;;;6280377;22;20098;-83
2023/07/22 12:26:12;;;;;;;1.60;0.60;;;26.20;64.00;;;;;;6255270;22;20023;-81
2023/07/22 12:28:39;;;;;;;1.40;0.40;;;26.30;63.20;;;;;;6254606;22;20054;-80
2023/07/22 12:31:09;;;;;;;2.33;0.82;;;26.20;65.10;;;;;;6279865;22;20072;-81
2023/07/22 12:33:37;;;;;;;1.45;0.45;;;26.30;65.80;;;;;;6282144;22;20019;-83
2023/07/22 12:36:04;;;;;;;1.95;1.00;;;26.30;66.80;;;;;;6258035;22;20022;-82
2023/07/22 12:38:32;;;;;;;6.05;1.30;;;26.30;66.40;;;;;;6256889;22;20721;-83
2023/07/22 12:41:00;;;;;;;3.78;1.10;;;26.30;65.60;;;;;;6249410;22;20106;-81
2023/07/22 12:43:29;;;;;;;2.08;0.50;;;26.40;68.30;;;;;;6280588;22;20827;-81
2023/07/22 12:45:56;;;;;;;10.57;1.77;;;26.30;65.30;;;;;;6254374;22;20034;-80
2023/07/22 12:48:26;;;;;;;1.88;0.40;;;26.40;67.20;;;;;;6246568;22;20094;-78
2023/07/22 12:50:54;;;;;;;1.00;0.50;;;26.60;64.60;;;;;;6279391;22;20011;-81
2023/07/22 12:53:22;;;;;;;2.42;0.45;;;26.20;61.60;;;;;;6257686;22;20447;-82
2023/07/22 12:55:50;;;;;;;4.32;1.40;;;26.20;63.10;;;;;;6281879;22;20015;-81
2023/07/22 12:58:17;;;;;;;1.70;0.50;;;26.40;63.60;;;;;;6253955;22;20019;-81
2023/07/22 13:00:45;;;;;;;1.05;0.40;;;26.50;62.30;;;;;;6253581;22;20439;-80
2023/07/22 13:03:16;;;;;;;2.38;0.60;;;26.40;63.60;;;;;;6254483;22;20020;-83
2023/07/22 13:05:44;;;;;;;2.78;0.68;;;26.60;63.90;;;;;;6255567;22;20030;-82
2023/07/22 13:08:15;;;;;;;3.87;1.37;;;26.50;62.90;;;;;;6278537;22;20027;-83
2023/07/22 13:10:45;;;;;;;2.80;0.50;;;26.50;62.00;;;;;;6255312;22;20029;-83
2023/07/22 13:13:12;;;;;;;1.58;0.68;;;26.60;61.60;;;;;;6256032;22;20745;-82
2023/07/22 13:15:40;;;;;;;1.58;0.40;;;26.60;64.40;;;;;;6256279;22;20355;-82
2023/07/22 13:18:07;;;;;;;1.83;0.50;;;26.60;64.80;;;;;;6259495;22;20015;-82
2023/07/22 13:20:35;;;;;;;0.85;0.40;;;26.50;64.20;;;;;;6282077;22;20016;-83
2023/07/22 13:23:02;;;;;;;2.15;0.40;;;26.50;62.70;;;;;;6255269;22;20011;-81
2023/07/22 13:25:31;;;;;;;1.48;0.30;;;26.30;63.00;;;;;;6280545;22;20725;-80
2023/07/22 13:27:58;;;;;;;1.40;0.43;;;26.40;63.20;;;;;;6279944;22;20132;-82
2023/07/22 13:30:26;;;;;;;2.05;0.40;;;26.30;63.60;;;;;;6255025;22;20035;-82
2023/07/22 13:32:53;;;;;;;1.00;0.40;;;26.40;62.60;;;;;;6254606;22;20050;-82
2023/07/22 13:35:21;;;;;;;1.25;0.35;;;26.40;62.20;;;;;;6254965;22;20019;-82
2023/07/22 13:37:48;;;;;;;1.70;0.30;;;26.50;64.50;;;;;;6254169;22;20027;-82
2023/07/22 13:40:16;;;;;;;0.90;0.30;;;26.60;63.50;;;;;;6253304;22;20019;-82
2023/07/22 13:42:43;;;;;;;0.95;0.38;;;26.70;62.00;;;;;;6253452;22;20049;-82
2023/07/22 13:45:12;;;;;;;0.70;0.32;;;26.60;62.00;;;;;;6279738;22;20019;-82
2023/07/22 13:47:39;;;;;;;1.00;0.40;;;26.60;61.90;;;;;;6256376;22;20027;-80
2023/07/22 13:50:07;;;;;;;0.98;0.30;;;26.70;62.60;;;;;;6257002;22;20019;-82
2023/07/22 13:52:35;;;;;;;1.58;0.40;;;26.50;61.40;;;;;;6258687;22;20019;-83
2023/07/22 13:55:03;;;;;;;0.88;0.30;;;26.60;63.60;;;;;;6255687;22;20088;-82
2023/07/22 13:57:30;;;;;;;0.95;0.40;;;26.60;62.80;;;;;;6253910;22;20098;-82
2023/07/22 13:59:58;;;;;;;2.63;0.40;;;26.50;63.50;;;;;;6255625;22;20023;-82
2023/07/22 14:02:26;;;;;;;1.35;0.30;;;26.50;62.70;;;;;;6253883;22;20115;-81
2023/07/22 14:04:53;;;;;;;1.00;0.38;;;26.60;62.80;;;;;;6252054;22;20270;-83
2023/07/22 14:07:21;;;;;;;2.10;0.40;;;26.60;61.70;;;;;;6256539;22;20023;-82
2023/07/22 14:09:49;;;;;;;0.85;0.40;;;26.60;63.10;;;;;;6257155;22;20084;-82
2023/07/22 14:12:16;;;;;;;3.50;0.40;;;26.70;63.40;;;;;;6310299;22;20023;-83
2023/07/22 14:14:44;;;;;;;1.85;0.40;;;26.70;63.10;;;;;;6280098;22;20015;-81
2023/07/22 14:17:11;;;;;;;1.15;0.40;;;26.70;62.00;;;;;;6281879;22;20023;-82
2023/07/22 14:19:39;;;;;;;1.35;0.55;;;26.70;63.50;;;;;;6257319;22;20023;-83
2023/07/22 14:22:07;;;;;;;1.95;0.40;;;26.70;61.70;;;;;;6281075;22;20027;-83